createdAt,value
2018-06-25T00:01:25.510Z,5.30
2018-06-25T00:03:54.249Z,5.30
2018-06-25T00:06:22.895Z,5.80
2018-06-25T00:08:51.400Z,6.10
2018-06-25T00:11:19.879Z,5.70
2018-06-25T00:13:48.504Z,5.80
2018-06-25T00:16:17.189Z,6.70
2018-06-25T00:18:45.635Z,6.00
2018-06-25T00:21:14.079Z,6.20
2018-06-25T00:23:42.554Z,6.30
2018-06-25T00:26:11.146Z,7.00
2018-06-25T00:28:39.676Z,6.90
2018-06-25T00:31:08.269Z,7.00
2018-06-25T00:33:36.841Z,7.20
2018-06-25T00:36:05.406Z,7.10
2018-06-25T00:38:33.789Z,7.60
2018-06-25T00:41:02.273Z,8.20
2018-06-25T00:43:30.746Z,8.70
2018-06-25T00:45:59.188Z,8.70
2018-06-25T00:48:27.555Z,9.40
2018-06-25T00:50:55.883Z,9.50
2018-06-25T00:53:24.714Z,9.20
2018-06-25T00:55:53.321Z,9.50
2018-06-25T00:58:21.784Z,10.30
2018-06-25T01:00:50.222Z,10.50
2018-06-25T01:03:18.685Z,10.30
2018-06-25T01:08:15.391Z,10.40
2018-06-25T01:10:43.856Z,11.80
2018-06-25T01:13:12.308Z,11.30
2018-06-25T01:15:40.788Z,11.80
2018-06-25T01:18:09.249Z,11.30
2018-06-25T01:20:37.602Z,11.80
2018-06-25T01:23:06.215Z,12.20
2018-06-25T01:25:34.592Z,12.60
2018-06-25T01:28:02.898Z,12.60
2018-06-25T01:30:31.522Z,13.00
2018-06-25T01:32:59.968Z,13.50
2018-06-25T01:35:28.415Z,14.60
2018-06-25T01:37:56.936Z,13.10
2018-06-25T01:40:25.415Z,14.00
2018-06-25T01:42:53.783Z,14.10
2018-06-25T01:45:22.168Z,13.70
2018-06-25T01:50:18.620Z,14.20
2018-06-25T01:52:46.988Z,15.30
2018-06-25T01:55:15.305Z,15.90
2018-06-25T01:57:43.623Z,15.10
2018-06-25T02:00:12.037Z,15.10
2018-06-25T02:02:40.537Z,14.80
2018-06-25T02:05:09.077Z,15.30
2018-06-25T02:07:37.368Z,15.70
2018-06-25T02:10:05.743Z,15.60
2018-06-25T02:12:34.343Z,16.40
2018-06-25T02:15:02.683Z,16.80
2018-06-25T02:17:31.002Z,17.80
2018-06-25T02:19:59.360Z,18.20
2018-06-25T02:24:55.814Z,19.10
2018-06-25T02:27:24.227Z,18.90
2018-06-25T02:29:52.878Z,19.50
2018-06-25T02:32:21.186Z,20.00
2018-06-25T02:34:49.786Z,20.70
2018-06-25T02:37:18.062Z,21.10
2018-06-25T02:39:46.579Z,21.60
2018-06-25T02:42:15.109Z,21.30
2018-06-25T02:44:43.596Z,22.00
2018-06-25T02:47:12.141Z,22.20
2018-06-25T02:49:40.589Z,22.00
2018-06-25T02:52:09.080Z,20.90
2018-06-25T02:54:37.619Z,21.70
2018-06-25T02:57:06.190Z,22.30
2018-06-25T02:59:34.585Z,22.70
2018-06-25T03:02:02.941Z,23.70
2018-06-25T03:04:31.386Z,25.30
2018-06-25T03:06:59.922Z,26.40
2018-06-25T03:11:56.437Z,27.30
2018-06-25T03:14:24.801Z,28.10
2018-06-25T03:16:53.312Z,27.90
2018-06-25T03:19:21.722Z,28.20
2018-06-25T03:21:50.755Z,28.20
2018-06-25T03:24:19.160Z,27.00
2018-06-25T03:26:47.543Z,27.80
2018-06-25T03:29:16.116Z,28.30
2018-06-25T03:31:44.398Z,28.70
2018-06-25T03:34:13.070Z,27.40
2018-06-25T03:36:41.654Z,27.30
2018-06-25T03:39:11.543Z,26.70
2018-06-25T03:41:40.046Z,26.90
2018-06-25T03:44:08.456Z,27.30
2018-06-25T03:46:37.110Z,27.20
2018-06-25T03:49:05.856Z,27.40
2018-06-25T03:51:34.089Z,27.80
2018-06-25T03:54:02.642Z,28.60
2018-06-25T03:56:30.976Z,29.20
2018-06-25T03:59:00.225Z,28.80
2018-06-25T04:01:28.658Z,29.50
2018-06-25T04:06:25.418Z,30.10
2018-06-25T04:08:54.022Z,30.70
2018-06-25T04:11:22.440Z,32.20
2018-06-25T04:13:51.061Z,32.20
2018-06-25T04:16:19.958Z,32.00
2018-06-25T04:18:55.904Z,31.50
2018-06-25T04:21:24.439Z,31.30
2018-06-25T04:26:21.262Z,32.90
2018-06-25T04:28:49.646Z,33.90
2018-06-25T04:31:18.071Z,33.10
2018-06-25T04:33:46.765Z,30.90
2018-06-25T04:36:15.137Z,32.20
2018-06-25T04:38:44.163Z,32.90
2018-06-25T04:41:12.917Z,33.70
2018-06-25T04:43:41.751Z,32.70
2018-06-25T04:46:10.432Z,33.80
2018-06-25T04:48:39.190Z,33.40
2018-06-25T04:51:08.311Z,34.20
2018-06-25T04:53:36.789Z,33.70
2018-06-25T04:56:05.240Z,34.60
2018-06-25T04:58:33.671Z,33.10
2018-06-25T05:01:02.160Z,33.60
2018-06-25T05:03:30.768Z,33.40
2018-06-25T05:05:59.229Z,33.10
2018-06-25T05:08:27.580Z,33.30
2018-06-25T05:10:55.903Z,34.80
2018-06-25T05:13:24.846Z,34.00
2018-06-25T05:18:21.498Z,36.40
2018-06-25T05:20:50.218Z,35.90
2018-06-25T05:23:18.646Z,35.90
2018-06-25T05:28:15.460Z,35.00
2018-06-25T05:30:43.989Z,35.90
2018-06-25T05:33:12.632Z,36.40
2018-06-25T05:35:40.884Z,35.20
2018-06-25T05:38:09.407Z,36.20
2018-06-25T05:40:39.171Z,33.30
2018-06-25T05:45:35.620Z,29.60
2018-06-25T05:48:03.984Z,30.00
2018-06-25T05:50:32.476Z,28.00
2018-06-25T05:53:01.043Z,28.90
2018-06-25T05:55:29.896Z,29.00
2018-06-25T05:57:58.322Z,28.60
2018-06-25T06:00:32.855Z,26.80
2018-06-25T06:03:01.295Z,25.70
2018-06-25T06:05:29.664Z,26.20
2018-06-25T06:07:58.026Z,26.10
2018-06-25T06:10:26.612Z,24.00
2018-06-25T06:12:55.195Z,24.40
2018-06-25T06:15:23.538Z,22.70
2018-06-25T06:17:52.032Z,23.00
2018-06-25T06:20:20.624Z,21.90
2018-06-25T06:22:49.168Z,22.60
2018-06-25T06:25:17.983Z,17.50
2018-06-25T06:27:46.526Z,17.60
2018-06-25T06:30:14.970Z,19.80
2018-06-25T06:35:11.992Z,18.10
2018-06-25T06:40:08.824Z,16.30
2018-06-25T06:42:37.791Z,15.20
2018-06-25T06:45:06.078Z,16.10
2018-06-25T06:47:34.625Z,15.30
2018-06-25T06:50:03.200Z,15.60
2018-06-25T06:52:48.992Z,13.80
2018-06-25T06:58:07.988Z,11.80
2018-06-25T07:00:52.420Z,10.80
2018-06-25T07:03:29.945Z,11.90
2018-06-25T07:06:06.211Z,10.30
2018-06-25T07:08:42.996Z,8.20
2018-06-25T07:11:19.053Z,10.30
2018-06-25T07:13:48.792Z,10.10
2018-06-25T07:16:23.310Z,10.10
2018-06-25T07:19:01.829Z,9.10
2018-06-25T07:26:42.099Z,7.00
2018-06-25T07:29:14.365Z,6.40
2018-06-25T07:31:45.739Z,5.20
2018-06-25T07:34:15.120Z,3.30
2018-06-25T07:36:44.255Z,3.90
2018-06-25T07:39:12.968Z,4.10
2018-06-25T07:41:41.602Z,2.10
2018-06-25T07:46:39.457Z,1.00
2018-06-25T07:49:07.920Z,1.00
2018-06-25T07:51:36.456Z,1.00
2018-06-25T07:54:05.205Z,1.00
2018-06-25T07:56:33.846Z,1.00
2018-06-25T07:59:04.204Z,1.00
2018-06-25T08:01:34.879Z,1.00
2018-06-25T08:04:04.914Z,1.00
2018-06-25T08:06:34.486Z,1.00
2018-06-25T08:09:15.702Z,1.00
2018-06-25T08:11:47.045Z,1.00
2018-06-25T08:14:15.589Z,1.00
2018-06-25T08:16:44.055Z,1.00
2018-06-25T08:19:12.314Z,1.00
2018-06-25T08:21:40.910Z,1.00
2018-06-25T08:24:09.266Z,1.00
2018-06-25T08:26:37.783Z,1.00
2018-06-25T08:29:06.456Z,1.00
2018-06-25T08:34:03.433Z,1.00
2018-06-25T08:36:31.719Z,1.00
2018-06-25T08:39:00.225Z,1.00
2018-06-25T08:41:28.605Z,1.00
2018-06-25T08:43:57.392Z,1.00
2018-06-25T08:46:25.815Z,1.00
2018-06-25T08:48:54.313Z,1.00
2018-06-25T08:51:22.697Z,1.00
2018-06-25T08:53:50.944Z,1.00
2018-06-25T08:56:19.357Z,1.00
2018-06-25T09:01:16.088Z,1.00
2018-06-25T09:03:45.033Z,1.00
2018-06-25T09:06:13.348Z,1.00
2018-06-25T09:08:41.835Z,1.00
2018-06-25T09:11:10.771Z,1.00
2018-06-25T09:13:39.421Z,1.00
2018-06-25T09:16:08.036Z,1.00
2018-06-25T09:18:36.581Z,1.00
2018-06-25T09:21:05.015Z,1.00
2018-06-25T09:23:33.639Z,1.00
2018-06-25T09:26:02.328Z,1.00
2018-06-25T09:28:30.636Z,1.00
2018-06-25T09:30:59.113Z,1.00
2018-06-25T09:33:28.737Z,1.00
2018-06-25T09:35:57.170Z,1.00
2018-06-25T09:38:25.627Z,1.00
2018-06-25T09:40:54.255Z,1.00
2018-06-25T09:43:22.904Z,1.00
2018-06-25T09:45:51.551Z,1.00
2018-06-25T09:48:20.196Z,1.00
2018-06-25T09:50:49.221Z,1.00
2018-06-25T09:53:17.947Z,1.00
2018-06-25T09:55:46.518Z,1.00
2018-06-25T09:58:15.059Z,1.00
2018-06-25T10:00:48.861Z,1.00
2018-06-25T10:03:17.432Z,1.00
2018-06-25T10:05:46.335Z,1.00
2018-06-25T10:08:15.052Z,1.00
2018-06-25T10:10:43.782Z,1.00
2018-06-25T10:13:12.185Z,1.00
2018-06-25T10:15:40.812Z,1.00
2018-06-25T10:18:09.296Z,1.00
2018-06-25T10:20:37.773Z,1.00
2018-06-25T10:23:06.564Z,1.00
2018-06-25T10:25:35.047Z,1.00
2018-06-25T10:28:03.816Z,1.00
2018-06-25T10:30:32.375Z,1.00
2018-06-25T10:33:02.054Z,1.00
2018-06-25T10:35:30.510Z,1.00
2018-06-25T10:37:59.045Z,1.00
2018-06-25T10:40:27.574Z,1.00
2018-06-25T10:42:56.248Z,1.00
2018-06-25T10:47:53.259Z,1.00
2018-06-25T10:50:21.853Z,1.00
2018-06-25T10:52:50.225Z,1.00
2018-06-25T10:55:18.523Z,1.00
2018-06-25T10:57:46.988Z,1.00
2018-06-25T11:00:15.829Z,1.00
2018-06-25T11:02:43.933Z,1.00
2018-06-25T11:05:12.835Z,1.00
2018-06-25T11:10:09.353Z,1.00
2018-06-25T11:12:37.600Z,1.00
2018-06-25T11:17:34.438Z,1.00
2018-06-25T11:20:02.958Z,1.00
2018-06-25T11:22:31.386Z,1.00
2018-06-25T11:24:59.692Z,1.00
2018-06-25T11:27:28.970Z,1.00
2018-06-25T11:29:57.307Z,1.00
2018-06-25T11:32:25.899Z,1.00
2018-06-25T11:34:54.422Z,1.00
2018-06-25T11:39:50.755Z,1.00
2018-06-25T11:44:47.492Z,1.00
2018-06-25T11:47:15.845Z,1.00
2018-06-25T11:49:44.854Z,1.00
2018-06-25T11:52:13.373Z,1.00
2018-06-25T11:54:41.795Z,1.00
2018-06-25T11:57:10.253Z,1.00
2018-06-25T11:59:38.627Z,1.00
2018-06-25T12:02:07.182Z,1.00
2018-06-25T12:04:35.427Z,1.00
2018-06-25T12:07:03.889Z,1.00
2018-06-25T12:09:32.386Z,1.00
2018-06-25T12:12:01.344Z,1.00
2018-06-25T12:17:00.389Z,1.00
2018-06-25T12:19:29.006Z,1.00
2018-06-25T12:24:25.695Z,1.00
2018-06-25T12:26:54.164Z,1.00
2018-06-25T12:29:22.703Z,1.00
2018-06-25T12:31:51.260Z,1.00
2018-06-25T12:34:19.773Z,1.00
2018-06-25T12:36:48.390Z,1.00
2018-06-25T12:39:16.735Z,1.00
2018-06-25T12:41:45.211Z,1.00
2018-06-25T12:44:13.628Z,1.00
2018-06-25T12:46:42.286Z,1.00
2018-06-25T12:49:10.673Z,1.00
2018-06-25T12:51:39.493Z,1.00
2018-06-25T12:54:08.309Z,1.00
2018-06-25T12:56:37.362Z,1.00
2018-06-25T12:59:06.036Z,1.00
2018-06-25T13:01:34.529Z,1.00
2018-06-25T13:04:03.026Z,1.00
2018-06-25T13:06:31.324Z,1.00
2018-06-25T13:14:01.724Z,1.00
2018-06-25T13:16:33.794Z,1.00
2018-06-25T13:19:02.069Z,1.00
2018-06-25T13:21:30.724Z,1.00
2018-06-25T13:23:59.211Z,1.00
2018-06-25T13:26:27.840Z,1.00
2018-06-25T13:28:56.192Z,1.00
2018-06-25T13:31:25.603Z,1.00
2018-06-25T13:33:53.970Z,1.00
2018-06-25T13:38:50.698Z,1.00
2018-06-25T13:41:19.301Z,1.00
2018-06-25T13:43:47.697Z,1.00
2018-06-25T13:46:16.384Z,1.00
2018-06-25T13:48:50.697Z,1.00
2018-06-25T13:51:19.112Z,1.00
2018-06-25T13:53:47.785Z,1.00
2018-06-25T13:56:16.550Z,1.00
2018-06-25T13:58:44.898Z,1.00
2018-06-25T14:01:13.236Z,1.00
2018-06-25T14:03:42.347Z,1.00
2018-06-25T14:06:11.147Z,1.00
2018-06-25T14:08:39.424Z,1.00
2018-06-25T14:11:08.185Z,1.00
2018-06-25T14:13:37.181Z,1.00
2018-06-25T14:16:05.976Z,1.00
2018-06-25T14:18:34.725Z,1.00
2018-06-25T14:21:03.164Z,1.00
2018-06-25T14:23:31.851Z,1.00
2018-06-25T14:26:05.102Z,1.00
2018-06-25T14:28:35.971Z,1.00
2018-06-25T14:31:09.920Z,1.00
2018-06-25T14:33:43.367Z,1.00
2018-06-25T14:36:11.715Z,1.00
2018-06-25T14:38:39.981Z,1.00
2018-06-25T14:41:08.650Z,1.00
2018-06-25T14:43:38.591Z,1.00
2018-06-25T14:46:07.817Z,1.00
2018-06-25T14:48:36.398Z,1.00
2018-06-25T14:51:05.272Z,1.00
2018-06-25T14:53:34.148Z,1.00
2018-06-25T14:58:32.657Z,1.00
2018-06-25T15:01:01.008Z,1.00
2018-06-25T15:03:29.316Z,1.00
2018-06-25T15:05:57.796Z,1.00
2018-06-25T15:08:26.165Z,1.00
2018-06-25T15:10:55.662Z,1.00
2018-06-25T15:13:24.859Z,1.00
2018-06-25T15:15:54.016Z,1.00
2018-06-25T15:18:23.167Z,1.00
2018-06-25T15:25:49.139Z,1.00
2018-06-25T15:30:46.454Z,1.00
2018-06-25T15:33:15.990Z,1.00
2018-06-25T15:35:45.559Z,1.00
2018-06-25T15:38:14.886Z,1.00
2018-06-25T15:40:48.764Z,1.00
2018-06-25T15:43:17.290Z,1.00
2018-06-25T15:45:46.289Z,1.00
2018-06-25T15:48:16.053Z,1.00
2018-06-25T15:50:45.412Z,1.00
2018-06-25T15:53:14.994Z,1.00
2018-06-25T15:55:44.087Z,1.00
2018-06-25T15:58:12.862Z,1.00
2018-06-25T16:00:41.670Z,1.00
2018-06-25T16:03:10.437Z,1.00
2018-06-25T16:05:39.261Z,1.00
2018-06-25T16:08:07.820Z,1.00
2018-06-25T16:10:36.602Z,1.00
2018-06-25T16:13:05.098Z,1.00
2018-06-25T16:15:33.683Z,1.00
2018-06-25T16:18:02.046Z,1.00
2018-06-25T16:20:30.769Z,1.00
2018-06-25T16:22:59.456Z,1.00
2018-06-25T16:25:27.937Z,1.00
2018-06-25T16:27:56.398Z,1.00
2018-06-25T16:30:25.388Z,1.00
2018-06-25T16:32:53.719Z,1.00
2018-06-25T16:35:22.634Z,1.00
2018-06-25T16:37:51.350Z,1.00
2018-06-25T16:40:19.823Z,1.00
2018-06-25T16:42:48.577Z,1.00
2018-06-25T16:47:45.680Z,1.00
2018-06-25T16:50:14.410Z,1.00
2018-06-25T16:52:42.937Z,1.00
2018-06-25T16:57:39.809Z,1.00
2018-06-25T17:00:08.771Z,1.00
2018-06-25T17:02:37.151Z,1.00
2018-06-25T17:07:33.632Z,1.00
2018-06-25T17:10:02.750Z,1.00
2018-06-25T17:12:31.108Z,1.00
2018-06-25T17:14:59.901Z,1.00
2018-06-25T17:17:29.147Z,1.00
2018-06-25T17:19:58.108Z,1.00
2018-06-25T17:22:26.761Z,1.00
2018-06-25T17:24:55.571Z,1.00
2018-06-25T17:27:24.214Z,1.00
2018-06-25T17:29:52.926Z,1.00
2018-06-25T17:32:21.922Z,1.00
2018-06-25T17:34:50.717Z,1.00
2018-06-25T17:37:19.184Z,1.00
2018-06-25T17:39:47.794Z,1.00
2018-06-25T17:44:45.168Z,1.00
2018-06-25T17:49:41.766Z,1.00
2018-06-25T17:52:11.554Z,1.00
2018-06-25T17:54:40.358Z,1.00
2018-06-25T17:57:09.375Z,1.00
2018-06-25T17:59:37.904Z,1.00
2018-06-25T18:02:06.251Z,1.00
2018-06-25T18:07:03.095Z,1.00
2018-06-25T18:09:31.759Z,1.00
2018-06-25T18:12:04.619Z,1.00
2018-06-25T18:14:33.059Z,1.00
2018-06-25T18:17:01.630Z,1.00
2018-06-25T18:19:29.961Z,1.00
2018-06-25T18:21:58.551Z,1.00
2018-06-25T18:24:27.184Z,1.00
2018-06-25T18:29:23.726Z,1.00
2018-06-25T18:31:52.146Z,1.00
2018-06-25T18:34:20.548Z,1.00
2018-06-25T18:36:49.589Z,1.00
2018-06-25T18:39:18.233Z,1.00
2018-06-25T18:41:46.530Z,1.00
2018-06-25T18:44:17.041Z,1.00
2018-06-25T18:46:45.651Z,1.00
2018-06-25T18:51:42.336Z,1.00
2018-06-25T18:56:38.979Z,1.00
2018-06-25T18:59:07.375Z,1.00
2018-06-25T19:04:04.040Z,1.00
2018-06-25T19:06:32.610Z,1.00
2018-06-25T19:09:01.071Z,1.00
2018-06-25T19:11:29.756Z,1.00
2018-06-25T19:13:58.315Z,1.00
2018-06-25T19:16:26.603Z,1.00
2018-06-25T19:18:57.134Z,1.00
2018-06-25T19:21:26.260Z,1.00
2018-06-25T19:28:51.157Z,1.00
2018-06-25T19:31:21.003Z,1.00
2018-06-25T19:33:49.427Z,1.00
2018-06-25T19:36:17.825Z,1.00
2018-06-25T19:38:46.425Z,1.00
2018-06-25T19:41:14.982Z,1.00
2018-06-25T19:43:43.596Z,1.00
2018-06-25T19:46:13.295Z,1.00
2018-06-25T19:48:42.176Z,1.00
2018-06-25T19:51:10.754Z,1.00
2018-06-25T19:53:39.446Z,1.00
2018-06-25T19:56:08.255Z,1.00
2018-06-25T19:58:37.455Z,1.00
2018-06-25T20:01:09.302Z,1.00
2018-06-25T20:03:37.774Z,1.00
2018-06-25T20:06:06.488Z,1.00
2018-06-25T20:08:35.092Z,1.00
2018-06-25T20:11:03.743Z,1.00
2018-06-25T20:13:32.018Z,1.00
2018-06-25T20:16:00.283Z,1.00
2018-06-25T20:18:28.611Z,1.00
2018-06-25T20:20:56.969Z,1.00
2018-06-25T20:23:25.737Z,1.00
2018-06-25T20:25:54.317Z,1.00
2018-06-25T20:30:51.105Z,1.00
2018-06-25T20:33:19.866Z,1.00
2018-06-25T20:35:48.384Z,1.00
2018-06-25T20:38:17.166Z,1.00
2018-06-25T20:40:46.020Z,1.00
2018-06-25T20:43:15.663Z,1.00
2018-06-25T20:45:44.074Z,1.00
2018-06-25T20:48:13.977Z,1.00
2018-06-25T20:50:42.393Z,1.00
2018-06-25T20:53:28.503Z,1.00
2018-06-25T20:55:56.931Z,1.00
2018-06-25T20:58:25.361Z,1.00
2018-06-25T21:03:53.654Z,1.00
2018-06-25T21:06:24.409Z,1.00
2018-06-25T21:08:53.049Z,1.00
2018-06-25T21:11:21.355Z,1.00
2018-06-25T21:13:49.767Z,1.00
2018-06-25T21:16:18.206Z,1.00
2018-06-25T21:18:46.765Z,1.00
2018-06-25T21:21:15.551Z,1.00
2018-06-25T21:23:43.961Z,1.00
2018-06-25T21:26:12.413Z,1.00
2018-06-25T21:28:41.903Z,1.00
2018-06-25T21:36:06.989Z,1.00
2018-06-25T21:41:03.859Z,1.00
2018-06-25T21:43:32.489Z,1.00
2018-06-25T21:46:01.034Z,1.00
2018-06-25T21:48:29.815Z,1.00
2018-06-25T21:50:58.549Z,1.00
2018-06-25T21:53:27.402Z,1.00
2018-06-25T21:55:56.293Z,1.00
2018-06-25T21:58:25.069Z,1.00
2018-06-25T22:00:53.871Z,1.00
2018-06-25T22:05:50.710Z,1.00
2018-06-25T22:10:47.457Z,1.00
2018-06-25T22:13:16.211Z,1.00
2018-06-25T22:15:44.904Z,1.00
2018-06-25T22:18:13.856Z,1.00
2018-06-25T22:23:10.462Z,1.00
2018-06-25T22:25:38.990Z,1.00
2018-06-25T22:28:07.649Z,1.00
2018-06-25T22:30:36.080Z,1.00
2018-06-25T22:33:04.453Z,1.00
2018-06-25T22:38:01.119Z,1.00
2018-06-25T22:40:29.487Z,1.00
2018-06-25T22:42:57.967Z,1.00
2018-06-25T22:45:26.721Z,1.00
2018-06-25T22:47:55.065Z,1.00
2018-06-25T22:52:51.907Z,1.00
2018-06-25T22:55:20.469Z,1.00
2018-06-25T22:57:48.960Z,1.00
2018-06-25T23:00:17.534Z,1.00
2018-06-25T23:02:45.839Z,1.00
2018-06-25T23:05:14.387Z,1.00
2018-06-25T23:07:42.879Z,1.00
2018-06-25T23:10:11.281Z,1.00
2018-06-25T23:12:39.715Z,1.00
2018-06-25T23:15:08.077Z,1.00
2018-06-25T23:17:36.544Z,1.00
2018-06-25T23:20:05.414Z,1.00
2018-06-25T23:22:34.095Z,1.00
2018-06-25T23:25:02.785Z,1.00
2018-06-25T23:27:31.175Z,1.00
2018-06-25T23:29:59.847Z,1.00
2018-06-25T23:32:28.255Z,1.00
2018-06-25T23:34:56.710Z,1.00
2018-06-25T23:37:25.159Z,1.00
2018-06-25T23:39:53.609Z,1.00
2018-06-25T23:42:21.847Z,1.00
2018-06-25T23:47:18.493Z,1.00
2018-06-25T23:49:47.363Z,1.00
2018-06-25T23:52:15.858Z,1.00
2018-06-25T23:54:44.294Z,1.00
2018-06-25T23:57:12.649Z,1.00
